Weather at Tain UL

Public forecast

Using degrees Celsius for public forecast. Weather courtesy of forecast.io.

Closest aviation weather report (METAR) to Tain UL

Closest report is RAF Kinloss, 16.5 nm (30.5 km) SE. Retrieved 2021/07/31 04:50 UTC (51 minutes ago):

EGQK 310450Z AUTO 34012KT 9999 OVC020/// 12/08 Q1006

Closest aviation forecast (TAF) to Tain UL

Forecast is more than 12 hours old.

Closest forecast is RAF Kinloss, 16.5 nm (30.5 km) SE. Retrieved 2020/10/16 06:00 UTC (10 months ago):

TAF TAF EGQK 160658Z 1606/1624 CNL